sensor_id;sensor_type;location;lat;lon;timestamp;P1;durP1;ratioP1;P2;durP2;ratioP2
70675;SDS011;59069;52.242;20.900;2023-12-07T00:01:09;40.60;;;15.32;;
70675;SDS011;59069;52.242;20.900;2023-12-07T00:03:34;41.07;;;13.77;;
70675;SDS011;59069;52.242;20.900;2023-12-07T00:05:59;43.63;;;14.70;;
70675;SDS011;59069;52.242;20.900;2023-12-07T00:08:25;37.83;;;14.15;;
70675;SDS011;59069;52.242;20.900;2023-12-07T00:10:51;40.57;;;13.20;;
70675;SDS011;59069;52.242;20.900;2023-12-07T00:13:16;43.30;;;13.43;;
70675;SDS011;59069;52.242;20.900;2023-12-07T00:15:42;36.75;;;13.65;;
70675;SDS011;59069;52.242;20.900;2023-12-07T00:18:07;44.03;;;13.47;;
70675;SDS011;59069;52.242;20.900;2023-12-07T00:20:33;41.53;;;13.40;;
70675;SDS011;59069;52.242;20.900;2023-12-07T00:22:58;38.33;;;13.20;;
70675;SDS011;59069;52.242;20.900;2023-12-07T00:25:24;37.27;;;13.63;;
70675;SDS011;59069;52.242;20.900;2023-12-07T00:27:49;38.20;;;13.97;;
70675;SDS011;59069;52.242;20.900;2023-12-07T00:30:15;43.05;;;13.82;;
70675;SDS011;59069;52.242;20.900;2023-12-07T00:32:41;40.73;;;13.40;;
70675;SDS011;59069;52.242;20.900;2023-12-07T00:35:09;42.80;;;14.98;;
70675;SDS011;59069;52.242;20.900;2023-12-07T00:37:35;40.03;;;12.45;;
70675;SDS011;59069;52.242;20.900;2023-12-07T00:40:01;39.23;;;13.87;;
70675;SDS011;59069;52.242;20.900;2023-12-07T00:42:27;41.75;;;13.25;;
70675;SDS011;59069;52.242;20.900;2023-12-07T00:44:52;37.17;;;13.13;;
70675;SDS011;59069;52.242;20.900;2023-12-07T00:47:18;39.92;;;12.85;;
70675;SDS011;59069;52.242;20.900;2023-12-07T00:49:43;38.27;;;13.43;;
70675;SDS011;59069;52.242;20.900;2023-12-07T00:52:09;34.87;;;12.57;;
70675;SDS011;59069;52.242;20.900;2023-12-07T00:54:34;43.50;;;13.63;;
70675;SDS011;59069;52.242;20.900;2023-12-07T00:57:00;40.97;;;13.70;;
70675;SDS011;59069;52.242;20.900;2023-12-07T00:59:25;38.03;;;14.10;;
70675;SDS011;59069;52.242;20.900;2023-12-07T01:01:51;42.43;;;14.27;;
70675;SDS011;59069;52.242;20.900;2023-12-07T01:04:16;46.28;;;14.50;;
70675;SDS011;59069;52.242;20.900;2023-12-07T01:06:42;35.83;;;12.70;;
70675;SDS011;59069;52.242;20.900;2023-12-07T01:09:08;36.25;;;13.57;;
70675;SDS011;59069;52.242;20.900;2023-12-07T01:11:38;42.00;;;13.63;;
70675;SDS011;59069;52.242;20.900;2023-12-07T01:14:05;43.47;;;13.33;;
70675;SDS011;59069;52.242;20.900;2023-12-07T01:16:30;42.80;;;13.93;;
70675;SDS011;59069;52.242;20.900;2023-12-07T01:18:56;45.17;;;13.67;;
70675;SDS011;59069;52.242;20.900;2023-12-07T01:21:22;40.08;;;13.88;;
70675;SDS011;59069;52.242;20.900;2023-12-07T01:23:48;44.03;;;13.90;;
70675;SDS011;59069;52.242;20.900;2023-12-07T01:26:14;42.53;;;13.20;;
70675;SDS011;59069;52.242;20.900;2023-12-07T01:28:39;35.00;;;13.57;;
70675;SDS011;59069;52.242;20.900;2023-12-07T01:31:04;46.47;;;13.70;;
70675;SDS011;59069;52.242;20.900;2023-12-07T01:33:30;46.57;;;14.10;;
70675;SDS011;59069;52.242;20.900;2023-12-07T01:35:55;43.47;;;13.30;;
70675;SDS011;59069;52.242;20.900;2023-12-07T01:38:21;41.65;;;13.55;;
70675;SDS011;59069;52.242;20.900;2023-12-07T01:40:47;40.90;;;13.83;;
70675;SDS011;59069;52.242;20.900;2023-12-07T01:43:12;42.47;;;12.57;;
70675;SDS011;59069;52.242;20.900;2023-12-07T01:45:38;41.53;;;13.80;;
70675;SDS011;59069;52.242;20.900;2023-12-07T01:48:03;40.37;;;13.37;;
70675;SDS011;59069;52.242;20.900;2023-12-07T01:50:29;47.92;;;13.32;;
70675;SDS011;59069;52.242;20.900;2023-12-07T01:53:02;44.80;;;13.43;;
70675;SDS011;59069;52.242;20.900;2023-12-07T01:55:28;42.25;;;13.05;;
70675;SDS011;59069;52.242;20.900;2023-12-07T01:57:56;45.80;;;12.93;;
70675;SDS011;59069;52.242;20.900;2023-12-07T02:00:21;42.22;;;13.07;;
70675;SDS011;59069;52.242;20.900;2023-12-07T02:02:47;46.70;;;13.83;;
70675;SDS011;59069;52.242;20.900;2023-12-07T02:05:13;44.03;;;12.88;;
70675;SDS011;59069;52.242;20.900;2023-12-07T02:07:40;39.53;;;11.98;;
70675;SDS011;59069;52.242;20.900;2023-12-07T02:10:07;47.55;;;13.30;;
70675;SDS011;59069;52.242;20.900;2023-12-07T02:12:32;46.33;;;12.73;;
70675;SDS011;59069;52.242;20.900;2023-12-07T02:15:00;46.75;;;14.45;;
70675;SDS011;59069;52.242;20.900;2023-12-07T02:17:28;44.47;;;12.85;;
70675;SDS011;59069;52.242;20.900;2023-12-07T02:20:01;51.95;;;14.18;;
70675;SDS011;59069;52.242;20.900;2023-12-07T02:22:46;44.90;;;13.53;;
70675;SDS011;59069;52.242;20.900;2023-12-07T02:25:18;44.90;;;13.40;;
70675;SDS011;59069;52.242;20.900;2023-12-07T02:27:48;47.10;;;12.70;;
70675;SDS011;59069;52.242;20.900;2023-12-07T02:30:14;40.07;;;12.23;;
70675;SDS011;59069;52.242;20.900;2023-12-07T02:32:41;52.30;;;13.95;;
70675;SDS011;59069;52.242;20.900;2023-12-07T02:35:09;46.30;;;13.98;;
70675;SDS011;59069;52.242;20.900;2023-12-07T02:37:42;45.35;;;12.98;;
70675;SDS011;59069;52.242;20.900;2023-12-07T02:40:10;48.72;;;13.98;;
70675;SDS011;59069;52.242;20.900;2023-12-07T02:42:39;49.60;;;13.90;;
70675;SDS011;59069;52.242;20.900;2023-12-07T02:45:06;39.58;;;12.70;;
70675;SDS011;59069;52.242;20.900;2023-12-07T02:47:33;38.40;;;12.23;;
70675;SDS011;59069;52.242;20.900;2023-12-07T02:49:59;46.58;;;12.40;;
70675;SDS011;59069;52.242;20.900;2023-12-07T02:52:25;41.87;;;11.97;;
70675;SDS011;59069;52.242;20.900;2023-12-07T02:54:50;42.42;;;11.88;;
70675;SDS011;59069;52.242;20.900;2023-12-07T02:57:16;41.57;;;12.03;;
70675;SDS011;59069;52.242;20.900;2023-12-07T02:59:41;42.27;;;12.97;;
70675;SDS011;59069;52.242;20.900;2023-12-07T03:02:06;41.60;;;11.47;;
70675;SDS011;59069;52.242;20.900;2023-12-07T03:04:32;49.50;;;13.48;;
70675;SDS011;59069;52.242;20.900;2023-12-07T03:06:58;43.50;;;12.83;;
70675;SDS011;59069;52.242;20.900;2023-12-07T03:09:23;39.88;;;11.57;;
70675;SDS011;59069;52.242;20.900;2023-12-07T03:11:49;40.83;;;11.53;;
70675;SDS011;59069;52.242;20.900;2023-12-07T03:14:15;39.22;;;12.23;;
70675;SDS011;59069;52.242;20.900;2023-12-07T03:16:40;41.77;;;12.03;;
70675;SDS011;59069;52.242;20.900;2023-12-07T03:19:06;44.27;;;12.47;;
70675;SDS011;59069;52.242;20.900;2023-12-07T03:21:31;38.93;;;11.50;;
70675;SDS011;59069;52.242;20.900;2023-12-07T03:23:57;43.20;;;13.43;;
70675;SDS011;59069;52.242;20.900;2023-12-07T03:26:22;36.53;;;12.17;;
70675;SDS011;59069;52.242;20.900;2023-12-07T03:28:48;43.33;;;11.95;;
70675;SDS011;59069;52.242;20.900;2023-12-07T03:31:13;41.47;;;11.73;;
70675;SDS011;59069;52.242;20.900;2023-12-07T03:33:41;42.70;;;12.67;;
70675;SDS011;59069;52.242;20.900;2023-12-07T03:36:10;36.40;;;11.77;;
70675;SDS011;59069;52.242;20.900;2023-12-07T03:38:36;39.25;;;11.43;;
70675;SDS011;59069;52.242;20.900;2023-12-07T03:41:01;39.03;;;11.83;;
70675;SDS011;59069;52.242;20.900;2023-12-07T03:43:27;39.63;;;12.27;;
70675;SDS011;59069;52.242;20.900;2023-12-07T03:45:52;36.40;;;11.55;;
70675;SDS011;59069;52.242;20.900;2023-12-07T03:48:18;37.00;;;11.60;;
70675;SDS011;59069;52.242;20.900;2023-12-07T03:50:43;41.00;;;12.10;;
70675;SDS011;59069;52.242;20.900;2023-12-07T03:53:08;34.80;;;11.40;;
70675;SDS011;59069;52.242;20.900;2023-12-07T03:55:34;35.78;;;12.07;;
70675;SDS011;59069;52.242;20.900;2023-12-07T03:58:01;35.30;;;11.52;;
70675;SDS011;59069;52.242;20.900;2023-12-07T04:00:27;37.93;;;11.30;;
70675;SDS011;59069;52.242;20.900;2023-12-07T04:02:52;36.97;;;11.57;;
70675;SDS011;59069;52.242;20.900;2023-12-07T04:05:18;38.00;;;12.13;;
70675;SDS011;59069;52.242;20.900;2023-12-07T04:07:43;32.97;;;10.90;;
70675;SDS011;59069;52.242;20.900;2023-12-07T04:10:09;37.42;;;11.48;;
70675;SDS011;59069;52.242;20.900;2023-12-07T04:12:35;33.87;;;10.63;;
70675;SDS011;59069;52.242;20.900;2023-12-07T04:15:00;36.72;;;12.07;;
70675;SDS011;59069;52.242;20.900;2023-12-07T04:17:25;32.77;;;11.93;;
70675;SDS011;59069;52.242;20.900;2023-12-07T04:19:51;40.33;;;12.23;;
70675;SDS011;59069;52.242;20.900;2023-12-07T04:22:16;37.43;;;11.17;;
70675;SDS011;59069;52.242;20.900;2023-12-07T04:24:42;35.63;;;11.35;;
70675;SDS011;59069;52.242;20.900;2023-12-07T04:27:07;35.23;;;11.90;;
70675;SDS011;59069;52.242;20.900;2023-12-07T04:29:33;33.63;;;11.40;;
70675;SDS011;59069;52.242;20.900;2023-12-07T04:31:58;45.23;;;12.20;;
70675;SDS011;59069;52.242;20.900;2023-12-07T04:34:24;37.38;;;11.32;;
70675;SDS011;59069;52.242;20.900;2023-12-07T04:36:49;33.27;;;11.03;;
70675;SDS011;59069;52.242;20.900;2023-12-07T04:39:15;36.30;;;11.30;;
70675;SDS011;59069;52.242;20.900;2023-12-07T04:41:40;39.80;;;12.73;;
70675;SDS011;59069;52.242;20.900;2023-12-07T04:44:06;37.40;;;11.13;;
70675;SDS011;59069;52.242;20.900;2023-12-07T04:46:31;38.87;;;12.17;;
70675;SDS011;59069;52.242;20.900;2023-12-07T04:48:57;37.70;;;11.67;;
70675;SDS011;59069;52.242;20.900;2023-12-07T04:51:22;37.63;;;11.55;;
70675;SDS011;59069;52.242;20.900;2023-12-07T04:53:47;41.53;;;12.20;;
70675;SDS011;59069;52.242;20.900;2023-12-07T04:56:13;40.63;;;11.53;;
70675;SDS011;59069;52.242;20.900;2023-12-07T04:58:38;38.47;;;11.40;;
70675;SDS011;59069;52.242;20.900;2023-12-07T05:01:04;41.77;;;11.57;;
70675;SDS011;59069;52.242;20.900;2023-12-07T05:03:29;42.70;;;11.32;;
70675;SDS011;59069;52.242;20.900;2023-12-07T05:05:55;33.90;;;10.90;;
70675;SDS011;59069;52.242;20.900;2023-12-07T05:08:20;41.63;;;12.37;;
70675;SDS011;59069;52.242;20.900;2023-12-07T05:10:46;42.10;;;11.07;;
70675;SDS011;59069;52.242;20.900;2023-12-07T05:13:11;35.77;;;10.60;;
70675;SDS011;59069;52.242;20.900;2023-12-07T05:15:37;37.33;;;11.93;;
70675;SDS011;59069;52.242;20.900;2023-12-07T05:18:02;39.58;;;12.15;;
70675;SDS011;59069;52.242;20.900;2023-12-07T05:20:28;40.23;;;11.77;;
70675;SDS011;59069;52.242;20.900;2023-12-07T05:22:54;34.45;;;10.88;;
70675;SDS011;59069;52.242;20.900;2023-12-07T05:25:20;38.70;;;11.53;;
70675;SDS011;59069;52.242;20.900;2023-12-07T05:27:45;42.42;;;11.43;;
70675;SDS011;59069;52.242;20.900;2023-12-07T05:30:11;35.10;;;11.70;;
70675;SDS011;59069;52.242;20.900;2023-12-07T05:32:37;34.65;;;11.02;;
70675;SDS011;59069;52.242;20.900;2023-12-07T05:35:03;41.13;;;12.00;;
70675;SDS011;59069;52.242;20.900;2023-12-07T05:37:29;36.42;;;11.48;;
70675;SDS011;59069;52.242;20.900;2023-12-07T05:39:54;34.57;;;10.07;;
70675;SDS011;59069;52.242;20.900;2023-12-07T05:42:20;35.47;;;11.55;;
70675;SDS011;59069;52.242;20.900;2023-12-07T05:44:46;34.07;;;11.53;;
70675;SDS011;59069;52.242;20.900;2023-12-07T05:47:11;36.50;;;11.97;;
70675;SDS011;59069;52.242;20.900;2023-12-07T05:49:37;35.08;;;11.60;;
70675;SDS011;59069;52.242;20.900;2023-12-07T05:52:02;39.17;;;11.27;;
70675;SDS011;59069;52.242;20.900;2023-12-07T05:54:28;33.33;;;11.00;;
70675;SDS011;59069;52.242;20.900;2023-12-07T05:56:53;37.38;;;11.80;;
70675;SDS011;59069;52.242;20.900;2023-12-07T05:59:19;36.20;;;11.53;;
70675;SDS011;59069;52.242;20.900;2023-12-07T06:01:44;41.27;;;11.40;;
70675;SDS011;59069;52.242;20.900;2023-12-07T06:04:10;41.67;;;10.70;;
70675;SDS011;59069;52.242;20.900;2023-12-07T06:06:37;34.53;;;11.17;;
70675;SDS011;59069;52.242;20.900;2023-12-07T06:09:03;36.63;;;11.15;;
70675;SDS011;59069;52.242;20.900;2023-12-07T06:11:31;35.22;;;11.27;;
70675;SDS011;59069;52.242;20.900;2023-12-07T06:13:56;32.80;;;10.63;;
70675;SDS011;59069;52.242;20.900;2023-12-07T06:16:24;33.58;;;10.68;;
70675;SDS011;59069;52.242;20.900;2023-12-07T06:18:50;37.60;;;12.03;;
70675;SDS011;59069;52.242;20.900;2023-12-07T06:21:16;33.75;;;13.05;;
70675;SDS011;59069;52.242;20.900;2023-12-07T06:23:41;42.57;;;16.60;;
70675;SDS011;59069;52.242;20.900;2023-12-07T06:26:07;36.20;;;11.40;;
70675;SDS011;59069;52.242;20.900;2023-12-07T06:28:32;36.30;;;12.97;;
70675;SDS011;59069;52.242;20.900;2023-12-07T06:30:59;35.47;;;11.88;;
70675;SDS011;59069;52.242;20.900;2023-12-07T06:33:29;35.70;;;11.55;;
70675;SDS011;59069;52.242;20.900;2023-12-07T06:35:55;30.80;;;10.87;;
70675;SDS011;59069;52.242;20.900;2023-12-07T06:38:20;28.70;;;10.97;;
70675;SDS011;59069;52.242;20.900;2023-12-07T06:40:46;33.83;;;10.77;;
70675;SDS011;59069;52.242;20.900;2023-12-07T06:43:11;29.92;;;11.73;;
70675;SDS011;59069;52.242;20.900;2023-12-07T06:45:37;40.93;;;12.80;;
70675;SDS011;59069;52.242;20.900;2023-12-07T06:48:02;35.57;;;11.87;;
70675;SDS011;59069;52.242;20.900;2023-12-07T06:50:28;30.30;;;11.35;;
70675;SDS011;59069;52.242;20.900;2023-12-07T06:52:53;31.57;;;10.00;;
70675;SDS011;59069;52.242;20.900;2023-12-07T06:55:19;35.03;;;11.50;;
70675;SDS011;59069;52.242;20.900;2023-12-07T06:57:44;34.67;;;10.50;;
70675;SDS011;59069;52.242;20.900;2023-12-07T07:00:10;34.67;;;11.87;;
70675;SDS011;59069;52.242;20.900;2023-12-07T07:02:39;32.53;;;11.20;;
70675;SDS011;59069;52.242;20.900;2023-12-07T07:05:05;30.70;;;11.13;;
70675;SDS011;59069;52.242;20.900;2023-12-07T07:07:31;35.88;;;11.68;;
70675;SDS011;59069;52.242;20.900;2023-12-07T07:09:57;32.50;;;10.52;;
70675;SDS011;59069;52.242;20.900;2023-12-07T07:12:23;36.03;;;10.87;;
70675;SDS011;59069;52.242;20.900;2023-12-07T07:14:48;31.97;;;11.00;;
70675;SDS011;59069;52.242;20.900;2023-12-07T07:17:14;25.27;;;10.33;;
70675;SDS011;59069;52.242;20.900;2023-12-07T07:19:40;33.05;;;11.20;;
70675;SDS011;59069;52.242;20.900;2023-12-07T07:22:06;30.03;;;10.77;;
70675;SDS011;59069;52.242;20.900;2023-12-07T07:24:31;35.55;;;11.43;;
70675;SDS011;59069;52.242;20.900;2023-12-07T07:26:57;36.00;;;13.07;;
70675;SDS011;59069;52.242;20.900;2023-12-07T07:29:22;33.23;;;12.50;;
70675;SDS011;59069;52.242;20.900;2023-12-07T07:31:48;36.97;;;12.57;;
70675;SDS011;59069;52.242;20.900;2023-12-07T07:34:13;38.27;;;12.93;;
70675;SDS011;59069;52.242;20.900;2023-12-07T07:36:39;34.60;;;11.70;;
70675;SDS011;59069;52.242;20.900;2023-12-07T07:39:04;32.10;;;12.23;;
70675;SDS011;59069;52.242;20.900;2023-12-07T07:41:32;31.70;;;10.93;;
70675;SDS011;59069;52.242;20.900;2023-12-07T07:43:58;36.28;;;12.43;;
70675;SDS011;59069;52.242;20.900;2023-12-07T07:46:24;35.83;;;13.23;;
70675;SDS011;59069;52.242;20.900;2023-12-07T07:48:49;43.17;;;13.80;;
70675;SDS011;59069;52.242;20.900;2023-12-07T07:51:15;38.20;;;12.70;;
70675;SDS011;59069;52.242;20.900;2023-12-07T07:53:41;31.85;;;11.85;;
70675;SDS011;59069;52.242;20.900;2023-12-07T07:56:07;32.27;;;12.57;;
70675;SDS011;59069;52.242;20.900;2023-12-07T07:58:33;37.60;;;12.65;;
70675;SDS011;59069;52.242;20.900;2023-12-07T08:00:59;32.28;;;11.45;;
70675;SDS011;59069;52.242;20.900;2023-12-07T08:03:25;35.57;;;11.73;;
70675;SDS011;59069;52.242;20.900;2023-12-07T08:05:50;38.63;;;12.73;;
70675;SDS011;59069;52.242;20.900;2023-12-07T08:08:16;27.15;;;11.32;;
70675;SDS011;59069;52.242;20.900;2023-12-07T08:10:41;31.40;;;11.87;;
70675;SDS011;59069;52.242;20.900;2023-12-07T08:13:07;34.17;;;12.30;;
70675;SDS011;59069;52.242;20.900;2023-12-07T08:15:33;34.58;;;11.93;;
70675;SDS011;59069;52.242;20.900;2023-12-07T08:17:59;32.83;;;12.40;;
70675;SDS011;59069;52.242;20.900;2023-12-07T08:20:24;28.30;;;11.63;;
70675;SDS011;59069;52.242;20.900;2023-12-07T08:22:50;32.27;;;12.87;;
70675;SDS011;59069;52.242;20.900;2023-12-07T08:25:15;37.38;;;12.75;;
70675;SDS011;59069;52.242;20.900;2023-12-07T08:27:42;30.90;;;12.50;;
70675;SDS011;59069;52.242;20.900;2023-12-07T08:30:10;34.80;;;12.50;;
70675;SDS011;59069;52.242;20.900;2023-12-07T08:32:36;29.80;;;10.95;;
70675;SDS011;59069;52.242;20.900;2023-12-07T08:35:02;35.35;;;13.02;;
70675;SDS011;59069;52.242;20.900;2023-12-07T08:37:28;32.47;;;12.15;;
70675;SDS011;59069;52.242;20.900;2023-12-07T08:39:54;33.37;;;12.00;;
70675;SDS011;59069;52.242;20.900;2023-12-07T08:42:19;34.50;;;11.80;;
70675;SDS011;59069;52.242;20.900;2023-12-07T08:44:45;32.63;;;12.23;;
70675;SDS011;59069;52.242;20.900;2023-12-07T08:47:10;30.47;;;11.80;;
70675;SDS011;59069;52.242;20.900;2023-12-07T08:49:36;30.87;;;12.03;;
70675;SDS011;59069;52.242;20.900;2023-12-07T08:52:01;34.70;;;12.13;;
70675;SDS011;59069;52.242;20.900;2023-12-07T08:54:27;32.17;;;12.20;;
70675;SDS011;59069;52.242;20.900;2023-12-07T08:56:53;34.10;;;12.23;;
70675;SDS011;59069;52.242;20.900;2023-12-07T08:59:18;31.13;;;11.93;;
70675;SDS011;59069;52.242;20.900;2023-12-07T09:01:44;38.23;;;14.00;;
70675;SDS011;59069;52.242;20.900;2023-12-07T09:04:09;30.33;;;12.40;;
70675;SDS011;59069;52.242;20.900;2023-12-07T09:06:38;32.00;;;11.70;;
70675;SDS011;59069;52.242;20.900;2023-12-07T09:09:03;34.42;;;12.38;;
70675;SDS011;59069;52.242;20.900;2023-12-07T09:11:29;34.75;;;12.45;;
70675;SDS011;59069;52.242;20.900;2023-12-07T09:13:55;34.97;;;12.57;;
70675;SDS011;59069;52.242;20.900;2023-12-07T09:16:21;33.28;;;13.07;;
70675;SDS011;59069;52.242;20.900;2023-12-07T09:18:46;35.53;;;13.63;;
70675;SDS011;59069;52.242;20.900;2023-12-07T09:21:12;34.03;;;12.40;;
70675;SDS011;59069;52.242;20.900;2023-12-07T09:23:38;34.67;;;12.27;;
70675;SDS011;59069;52.242;20.900;2023-12-07T09:26:03;35.73;;;12.77;;
70675;SDS011;59069;52.242;20.900;2023-12-07T09:28:29;32.85;;;13.50;;
70675;SDS011;59069;52.242;20.900;2023-12-07T09:31:06;33.17;;;13.10;;
70675;SDS011;59069;52.242;20.900;2023-12-07T09:33:32;33.33;;;12.85;;
70675;SDS011;59069;52.242;20.900;2023-12-07T09:35:57;39.00;;;13.63;;
70675;SDS011;59069;52.242;20.900;2023-12-07T09:38:23;32.70;;;12.17;;
70675;SDS011;59069;52.242;20.900;2023-12-07T09:40:52;35.35;;;12.80;;
70675;SDS011;59069;52.242;20.900;2023-12-07T09:43:17;30.83;;;12.27;;
70675;SDS011;59069;52.242;20.900;2023-12-07T09:45:43;32.77;;;13.30;;
70675;SDS011;59069;52.242;20.900;2023-12-07T09:48:09;32.78;;;13.23;;
70675;SDS011;59069;52.242;20.900;2023-12-07T09:50:34;35.73;;;13.83;;
70675;SDS011;59069;52.242;20.900;2023-12-07T09:53:01;33.88;;;13.65;;
70675;SDS011;59069;52.242;20.900;2023-12-07T09:55:27;38.80;;;14.73;;
70675;SDS011;59069;52.242;20.900;2023-12-07T09:57:53;36.27;;;13.50;;
70675;SDS011;59069;52.242;20.900;2023-12-07T10:00:21;30.67;;;13.35;;
70675;SDS011;59069;52.242;20.900;2023-12-07T10:02:47;36.77;;;13.27;;
70675;SDS011;59069;52.242;20.900;2023-12-07T10:05:13;29.05;;;11.82;;
70675;SDS011;59069;52.242;20.900;2023-12-07T10:07:41;37.22;;;13.85;;
70675;SDS011;59069;52.242;20.900;2023-12-07T10:10:12;35.87;;;13.93;;
70675;SDS011;59069;52.242;20.900;2023-12-07T10:12:59;33.40;;;13.20;;
70675;SDS011;59069;52.242;20.900;2023-12-07T10:15:24;34.55;;;14.05;;
70675;SDS011;59069;52.242;20.900;2023-12-07T10:17:54;29.70;;;12.93;;
70675;SDS011;59069;52.242;20.900;2023-12-07T10:20:22;32.13;;;13.45;;
70675;SDS011;59069;52.242;20.900;2023-12-07T10:22:49;34.53;;;13.50;;
70675;SDS011;59069;52.242;20.900;2023-12-07T10:25:26;35.97;;;13.93;;
70675;SDS011;59069;52.242;20.900;2023-12-07T10:27:51;36.97;;;14.63;;
70675;SDS011;59069;52.242;20.900;2023-12-07T10:30:17;34.58;;;14.40;;
70675;SDS011;59069;52.242;20.900;2023-12-07T10:32:49;28.10;;;12.27;;
70675;SDS011;59069;52.242;20.900;2023-12-07T10:35:15;32.88;;;13.43;;
70675;SDS011;59069;52.242;20.900;2023-12-07T10:37:41;36.05;;;14.50;;
70675;SDS011;59069;52.242;20.900;2023-12-07T10:40:07;34.27;;;13.23;;
70675;SDS011;59069;52.242;20.900;2023-12-07T10:42:34;34.65;;;13.75;;
70675;SDS011;59069;52.242;20.900;2023-12-07T10:45:05;33.55;;;13.95;;
70675;SDS011;59069;52.242;20.900;2023-12-07T10:47:35;34.03;;;13.98;;
70675;SDS011;59069;52.242;20.900;2023-12-07T10:50:03;34.65;;;13.15;;
70675;SDS011;59069;52.242;20.900;2023-12-07T10:52:36;35.97;;;12.97;;
70675;SDS011;59069;52.242;20.900;2023-12-07T10:55:07;35.13;;;13.63;;
70675;SDS011;59069;52.242;20.900;2023-12-07T10:58:00;34.45;;;13.90;;
70675;SDS011;59069;52.242;20.900;2023-12-07T11:00:27;32.10;;;13.10;;
70675;SDS011;59069;52.242;20.900;2023-12-07T11:02:54;39.45;;;13.93;;
70675;SDS011;59069;52.242;20.900;2023-12-07T11:05:20;37.03;;;14.00;;
70675;SDS011;59069;52.242;20.900;2023-12-07T11:10:34;35.25;;;14.05;;
70675;SDS011;59069;52.242;20.900;2023-12-07T11:15:39;33.22;;;13.60;;
70675;SDS011;59069;52.242;20.900;2023-12-07T11:18:06;35.33;;;13.93;;
70675;SDS011;59069;52.242;20.900;2023-12-07T11:20:41;34.33;;;13.00;;
70675;SDS011;59069;52.242;20.900;2023-12-07T11:23:09;32.78;;;13.95;;
70675;SDS011;59069;52.242;20.900;2023-12-07T11:25:35;32.13;;;12.93;;
70675;SDS011;59069;52.242;20.900;2023-12-07T11:28:01;32.55;;;13.65;;
70675;SDS011;59069;52.242;20.900;2023-12-07T11:30:32;29.20;;;12.35;;
70675;SDS011;59069;52.242;20.900;2023-12-07T11:33:00;33.55;;;13.55;;
70675;SDS011;59069;52.242;20.900;2023-12-07T11:35:28;35.03;;;13.95;;
70675;SDS011;59069;52.242;20.900;2023-12-07T11:38:00;34.03;;;13.03;;
70675;SDS011;59069;52.242;20.900;2023-12-07T11:40:37;30.55;;;12.75;;
70675;SDS011;59069;52.242;20.900;2023-12-07T11:43:05;32.63;;;13.20;;
70675;SDS011;59069;52.242;20.900;2023-12-07T11:45:41;28.35;;;12.93;;
70675;SDS011;59069;52.242;20.900;2023-12-07T11:48:13;34.08;;;13.30;;
70675;SDS011;59069;52.242;20.900;2023-12-07T11:51:23;32.10;;;13.25;;
70675;SDS011;59069;52.242;20.900;2023-12-07T11:53:36;30.65;;;12.43;;
70675;SDS011;59069;52.242;20.900;2023-12-07T11:56:05;33.50;;;13.33;;
70675;SDS011;59069;52.242;20.900;2023-12-07T11:58:35;31.30;;;13.07;;
70675;SDS011;59069;52.242;20.900;2023-12-07T12:01:02;40.25;;;14.60;;
70675;SDS011;59069;52.242;20.900;2023-12-07T12:03:28;34.47;;;13.43;;
70675;SDS011;59069;52.242;20.900;2023-12-07T12:05:55;36.40;;;14.13;;
70675;SDS011;59069;52.242;20.900;2023-12-07T12:08:21;34.10;;;13.52;;
70675;SDS011;59069;52.242;20.900;2023-12-07T12:10:47;34.10;;;14.52;;
70675;SDS011;59069;52.242;20.900;2023-12-07T12:13:15;33.70;;;13.52;;
70675;SDS011;59069;52.242;20.900;2023-12-07T12:15:41;32.17;;;14.10;;
70675;SDS011;59069;52.242;20.900;2023-12-07T12:18:07;30.58;;;12.98;;
70675;SDS011;59069;52.242;20.900;2023-12-07T12:20:33;37.30;;;14.82;;
70675;SDS011;59069;52.242;20.900;2023-12-07T12:23:00;35.47;;;14.02;;
70675;SDS011;59069;52.242;20.900;2023-12-07T12:25:26;32.50;;;13.57;;
70675;SDS011;59069;52.242;20.900;2023-12-07T12:27:59;33.08;;;13.85;;
70675;SDS011;59069;52.242;20.900;2023-12-07T12:30:27;38.97;;;14.45;;
70675;SDS011;59069;52.242;20.900;2023-12-07T12:32:53;36.03;;;13.98;;
70675;SDS011;59069;52.242;20.900;2023-12-07T12:35:20;34.17;;;14.10;;
70675;SDS011;59069;52.242;20.900;2023-12-07T12:37:46;34.47;;;14.33;;
70675;SDS011;59069;52.242;20.900;2023-12-07T12:40:14;37.88;;;14.93;;
70675;SDS011;59069;52.242;20.900;2023-12-07T12:42:51;35.90;;;13.97;;
70675;SDS011;59069;52.242;20.900;2023-12-07T12:45:18;35.80;;;13.85;;
70675;SDS011;59069;52.242;20.900;2023-12-07T12:47:44;40.33;;;15.15;;
70675;SDS011;59069;52.242;20.900;2023-12-07T12:50:11;35.67;;;14.20;;
70675;SDS011;59069;52.242;20.900;2023-12-07T12:52:41;36.25;;;15.50;;
70675;SDS011;59069;52.242;20.900;2023-12-07T12:55:07;36.87;;;13.93;;
70675;SDS011;59069;52.242;20.900;2023-12-07T12:57:37;38.50;;;15.13;;
70675;SDS011;59069;52.242;20.900;2023-12-07T13:00:03;34.10;;;14.35;;
70675;SDS011;59069;52.242;20.900;2023-12-07T13:02:32;38.88;;;16.30;;
70675;SDS011;59069;52.242;20.900;2023-12-07T13:04:59;41.67;;;14.68;;
70675;SDS011;59069;52.242;20.900;2023-12-07T13:07:24;35.70;;;14.67;;
70675;SDS011;59069;52.242;20.900;2023-12-07T13:09:51;33.92;;;14.55;;
70675;SDS011;59069;52.242;20.900;2023-12-07T13:12:16;32.97;;;14.33;;
70675;SDS011;59069;52.242;20.900;2023-12-07T13:14:42;32.20;;;14.23;;
70675;SDS011;59069;52.242;20.900;2023-12-07T13:17:08;40.87;;;15.70;;
70675;SDS011;59069;52.242;20.900;2023-12-07T13:19:33;40.07;;;14.67;;
70675;SDS011;59069;52.242;20.900;2023-12-07T13:22:02;37.95;;;15.38;;
70675;SDS011;59069;52.242;20.900;2023-12-07T13:24:31;34.97;;;14.52;;
70675;SDS011;59069;52.242;20.900;2023-12-07T13:26:56;35.10;;;14.57;;
70675;SDS011;59069;52.242;20.900;2023-12-07T13:29:23;36.53;;;15.07;;
70675;SDS011;59069;52.242;20.900;2023-12-07T13:31:48;36.35;;;14.52;;
70675;SDS011;59069;52.242;20.900;2023-12-07T13:34:14;34.17;;;15.20;;
70675;SDS011;59069;52.242;20.900;2023-12-07T13:36:43;37.83;;;15.07;;
70675;SDS011;59069;52.242;20.900;2023-12-07T13:39:09;37.92;;;15.90;;
70675;SDS011;59069;52.242;20.900;2023-12-07T13:41:37;37.53;;;15.18;;
70675;SDS011;59069;52.242;20.900;2023-12-07T13:44:03;36.87;;;14.07;;
70675;SDS011;59069;52.242;20.900;2023-12-07T13:46:30;33.55;;;13.88;;
70675;SDS011;59069;52.242;20.900;2023-12-07T13:48:56;35.85;;;14.05;;
70675;SDS011;59069;52.242;20.900;2023-12-07T13:51:22;34.80;;;13.93;;
70675;SDS011;59069;52.242;20.900;2023-12-07T13:53:48;36.13;;;14.43;;
70675;SDS011;59069;52.242;20.900;2023-12-07T13:56:13;35.20;;;14.77;;
70675;SDS011;59069;52.242;20.900;2023-12-07T13:58:39;38.13;;;14.43;;
70675;SDS011;59069;52.242;20.900;2023-12-07T14:01:04;36.97;;;14.83;;
70675;SDS011;59069;52.242;20.900;2023-12-07T14:03:30;36.28;;;14.63;;
70675;SDS011;59069;52.242;20.900;2023-12-07T14:05:56;33.70;;;14.03;;
70675;SDS011;59069;52.242;20.900;2023-12-07T14:08:21;32.95;;;14.35;;
70675;SDS011;59069;52.242;20.900;2023-12-07T14:10:47;36.10;;;14.37;;